createdAt,value
2017-10-10T00:02:33.967Z,56.93
2017-10-10T00:07:35.880Z,60.03
2017-10-10T00:12:37.821Z,56.50
2017-10-10T00:17:39.716Z,57.03
2017-10-10T00:22:41.657Z,57.10
2017-10-10T00:27:43.563Z,56.47
2017-10-10T00:32:45.515Z,61.53
2017-10-10T00:37:47.439Z,62.67
2017-10-10T00:42:51.112Z,57.10
2017-10-10T00:47:54.628Z,52.57
2017-10-10T00:52:57.444Z,59.73
2017-10-10T00:58:00.451Z,57.33
2017-10-10T01:03:03.960Z,45.00
2017-10-10T01:08:06.805Z,45.77
2017-10-10T01:13:09.470Z,47.60
2017-10-10T01:18:11.479Z,53.50
2017-10-10T01:23:13.467Z,48.50
2017-10-10T01:28:15.480Z,47.90
2017-10-10T01:33:17.499Z,49.07
2017-10-10T01:38:19.514Z,52.40
2017-10-10T01:43:21.564Z,47.80
2017-10-10T01:48:24.295Z,55.40
2017-10-10T01:53:26.246Z,50.77
2017-10-10T01:58:28.207Z,49.93
2017-10-10T02:03:30.928Z,44.37
2017-10-10T02:08:33.660Z,53.07
2017-10-10T02:13:35.572Z,56.50
2017-10-10T02:18:37.488Z,49.27
2017-10-10T02:23:39.390Z,54.10
2017-10-10T02:28:41.269Z,51.83
2017-10-10T02:33:43.192Z,50.83
2017-10-10T02:38:45.152Z,52.77
2017-10-10T02:43:47.873Z,56.27
2017-10-10T02:48:49.856Z,55.07
2017-10-10T02:53:51.801Z,54.77
2017-10-10T02:58:54.455Z,53.60
2017-10-10T03:03:56.450Z,62.67
2017-10-10T03:08:58.369Z,71.10
2017-10-10T03:14:00.725Z,69.80
2017-10-10T03:19:03.383Z,76.37
2017-10-10T03:24:06.360Z,83.50
2017-10-10T03:29:08.248Z,66.23
2017-10-10T03:34:11.142Z,87.90
2017-10-10T03:39:13.159Z,88.50
2017-10-10T03:44:15.181Z,79.97
2017-10-10T03:49:20.550Z,85.40
2017-10-10T03:54:23.436Z,81.33
2017-10-10T03:59:26.433Z,82.83
2017-10-10T04:04:28.816Z,83.70
2017-10-10T04:09:31.237Z,94.30
2017-10-10T04:14:33.218Z,94.80
2017-10-10T04:19:35.124Z,99.73
2017-10-10T04:24:37.062Z,104.57
2017-10-10T04:29:39.027Z,95.60
2017-10-10T04:34:40.975Z,125.30
2017-10-10T04:39:42.977Z,115.47
2017-10-10T04:44:44.937Z,114.93
2017-10-10T04:49:46.921Z,118.30
2017-10-10T04:54:50.013Z,124.83
2017-10-10T04:59:51.972Z,136.27
2017-10-10T05:04:54.720Z,126.67
2017-10-10T05:09:56.775Z,134.70
2017-10-10T05:14:58.723Z,129.13
2017-10-10T05:20:00.726Z,144.30
2017-10-10T05:25:02.817Z,133.90
2017-10-10T05:30:05.869Z,135.87
2017-10-10T05:35:07.921Z,133.10
2017-10-10T05:40:09.807Z,147.60
2017-10-10T05:45:11.769Z,134.90
2017-10-10T05:50:13.682Z,135.10
2017-10-10T05:55:15.733Z,138.07
2017-10-10T06:00:17.771Z,148.00
2017-10-10T06:05:20.694Z,135.10
2017-10-10T06:10:23.497Z,131.57
2017-10-10T06:15:25.443Z,126.00
2017-10-10T06:20:27.403Z,121.63
2017-10-10T06:25:29.370Z,133.10
2017-10-10T06:30:31.398Z,146.97
2017-10-10T06:35:33.310Z,133.33
2017-10-10T06:40:35.264Z,134.50
2017-10-10T06:45:37.262Z,137.60
2017-10-10T06:50:39.203Z,130.73
2017-10-10T06:55:41.179Z,128.77
2017-10-10T07:00:43.180Z,124.00
2017-10-10T07:05:45.891Z,114.17
2017-10-10T07:10:48.527Z,107.20
2017-10-10T07:15:50.468Z,95.30
2017-10-10T07:20:52.376Z,93.90
2017-10-10T07:25:54.312Z,86.47
2017-10-10T07:30:56.974Z,64.80
2017-10-10T07:35:58.937Z,62.60
2017-10-10T07:41:01.595Z,73.03
2017-10-10T07:46:03.648Z,59.33
2017-10-10T07:51:06.434Z,61.60
2017-10-10T07:56:08.375Z,54.50
2017-10-10T08:01:10.401Z,57.77
2017-10-10T08:06:13.085Z,57.60
2017-10-10T08:11:14.996Z,58.90
2017-10-10T08:16:16.940Z,64.53
2017-10-10T08:21:19.589Z,58.10
2017-10-10T08:26:21.511Z,56.30
2017-10-10T08:31:23.457Z,62.40
2017-10-10T08:36:26.115Z,58.43
2017-10-10T08:41:28.058Z,54.67
2017-10-10T08:46:29.976Z,59.70
2017-10-10T08:51:32.653Z,48.93
2017-10-10T08:56:34.579Z,50.13
2017-10-10T09:01:36.552Z,50.27
2017-10-10T09:06:38.500Z,47.87
2017-10-10T09:11:41.224Z,47.50
2017-10-10T09:16:43.158Z,42.53
2017-10-10T09:21:45.076Z,39.07
2017-10-10T09:26:46.971Z,38.67
2017-10-10T09:31:48.884Z,34.50
2017-10-10T09:36:50.791Z,32.03
2017-10-10T09:41:52.758Z,35.23
2017-10-10T09:46:55.419Z,33.67
2017-10-10T09:51:57.352Z,32.50
2017-10-10T09:56:59.301Z,34.50
2017-10-10T10:02:01.228Z,36.57
2017-10-10T10:07:03.197Z,33.87
2017-10-10T10:12:05.152Z,33.40
2017-10-10T10:17:07.075Z,37.80
2017-10-10T10:22:08.975Z,33.70
2017-10-10T10:27:10.891Z,36.67
2017-10-10T10:32:13.551Z,39.97
2017-10-10T10:37:15.496Z,39.40
2017-10-10T10:42:17.752Z,43.20
2017-10-10T10:47:19.690Z,48.37
2017-10-10T10:52:21.623Z,50.67
2017-10-10T10:57:24.288Z,52.43
2017-10-10T11:02:26.262Z,42.97
2017-10-10T11:07:28.196Z,45.23
2017-10-10T11:12:30.121Z,44.87
2017-10-10T11:17:32.057Z,48.10
2017-10-10T11:22:33.977Z,44.33
2017-10-10T11:27:36.692Z,48.90
2017-10-10T11:32:39.464Z,41.10
2017-10-10T11:37:41.403Z,37.20
2017-10-10T11:42:43.440Z,43.43
2017-10-10T11:47:45.451Z,38.73
2017-10-10T11:52:50.409Z,41.37
2017-10-10T11:57:53.121Z,30.97
2017-10-10T12:03:01.911Z,33.93
2017-10-10T12:08:03.901Z,31.17
2017-10-10T12:13:07.772Z,36.97
2017-10-10T12:18:09.916Z,33.40
2017-10-10T12:23:11.839Z,36.27
2017-10-10T12:28:13.727Z,37.17
2017-10-10T12:33:15.635Z,34.03
2017-10-10T12:38:17.588Z,39.53
2017-10-10T12:43:19.510Z,31.00
2017-10-10T12:48:21.489Z,30.67
2017-10-10T12:53:24.181Z,39.53
2017-10-10T12:58:26.124Z,33.53
2017-10-10T13:03:28.095Z,24.30
2017-10-10T13:08:30.052Z,31.23
2017-10-10T13:13:31.940Z,27.27
2017-10-10T13:18:33.875Z,27.77
2017-10-10T13:23:35.763Z,41.20
2017-10-10T13:28:37.693Z,33.53
2017-10-10T13:33:40.594Z,35.80
2017-10-10T13:38:43.642Z,36.60
2017-10-10T13:43:45.612Z,35.27
2017-10-10T13:48:47.574Z,40.93
2017-10-10T13:53:49.507Z,32.30
2017-10-10T13:58:51.483Z,40.20
2017-10-10T14:03:53.515Z,36.13
2017-10-10T14:08:55.444Z,38.60
2017-10-10T14:13:59.012Z,31.67
2017-10-10T14:19:01.122Z,31.70
2017-10-10T14:24:03.164Z,29.30
2017-10-10T14:29:05.881Z,35.00
2017-10-10T14:34:08.544Z,31.37
2017-10-10T14:39:10.679Z,26.93
2017-10-10T14:44:12.578Z,31.50
2017-10-10T14:49:14.538Z,32.17
2017-10-10T14:54:16.448Z,37.63
2017-10-10T14:59:18.341Z,37.90
2017-10-10T15:04:20.299Z,34.13
2017-10-10T15:09:22.203Z,34.03
2017-10-10T15:14:24.096Z,33.83
2017-10-10T15:19:26.035Z,28.57
2017-10-10T15:24:27.949Z,27.83
2017-10-10T15:29:30.577Z,37.87
2017-10-10T15:34:32.464Z,25.00
2017-10-10T15:39:35.120Z,31.43
2017-10-10T15:44:37.060Z,28.33
2017-10-10T15:49:38.960Z,41.30
2017-10-10T15:54:40.991Z,31.33
2017-10-10T15:59:43.624Z,30.10
2017-10-10T16:04:45.544Z,31.63
2017-10-10T16:09:47.499Z,31.67
2017-10-10T16:14:49.390Z,33.07
2017-10-10T16:19:51.301Z,33.13
2017-10-10T16:24:53.196Z,40.20
2017-10-10T16:29:55.276Z,32.03
2017-10-10T16:34:58.320Z,33.50
2017-10-10T16:40:00.301Z,37.70
2017-10-10T16:45:02.271Z,39.17
2017-10-10T16:50:04.930Z,38.57
2017-10-10T16:55:06.862Z,33.00
2017-10-10T17:00:08.780Z,45.70
2017-10-10T17:05:10.715Z,38.57
2017-10-10T17:10:13.350Z,32.90
2017-10-10T17:15:15.243Z,34.33
2017-10-10T17:20:17.310Z,35.50
2017-10-10T17:25:19.260Z,38.03
2017-10-10T17:30:21.241Z,33.83
2017-10-10T17:35:24.244Z,33.70
2017-10-10T17:40:31.987Z,32.77
2017-10-10T17:45:33.883Z,34.13
2017-10-10T17:50:35.796Z,34.63
2017-10-10T17:55:37.736Z,30.03
2017-10-10T18:00:39.699Z,34.00
2017-10-10T18:05:41.633Z,26.87
2017-10-10T18:10:43.565Z,28.23
2017-10-10T18:15:45.561Z,26.70
2017-10-10T18:20:47.583Z,26.30
2017-10-10T18:25:49.498Z,26.83
2017-10-10T18:30:51.594Z,28.30
2017-10-10T18:35:54.004Z,30.20
2017-10-10T18:40:55.958Z,28.20
2017-10-10T18:45:59.258Z,29.17
2017-10-10T18:51:01.231Z,43.53
2017-10-10T18:56:03.796Z,27.40
2017-10-10T19:01:06.471Z,33.10
2017-10-10T19:06:08.521Z,28.57
2017-10-10T19:11:10.521Z,28.53
2017-10-10T19:16:12.455Z,29.57
2017-10-10T19:21:15.046Z,33.83
2017-10-10T19:26:16.966Z,30.83
2017-10-10T19:31:19.223Z,34.70
2017-10-10T19:36:21.287Z,36.83
2017-10-10T19:41:23.275Z,29.17
2017-10-10T19:46:25.235Z,32.10
2017-10-10T19:51:27.155Z,32.30
2017-10-10T19:56:29.435Z,38.30
2017-10-10T20:01:32.202Z,32.93
2017-10-10T20:06:34.956Z,38.70
2017-10-10T20:11:37.991Z,32.63
2017-10-10T20:16:41.028Z,34.60
2017-10-10T20:21:43.871Z,35.40
2017-10-10T20:26:46.701Z,42.17
2017-10-10T20:31:49.384Z,43.97
2017-10-10T20:36:52.213Z,41.87
2017-10-10T20:41:54.159Z,46.77
2017-10-10T20:46:56.122Z,44.80
2017-10-10T20:51:58.062Z,49.50
2017-10-10T20:56:59.992Z,54.23
2017-10-10T21:02:01.934Z,55.10
2017-10-10T21:07:03.842Z,64.07
2017-10-10T21:12:06.526Z,56.37
2017-10-10T21:17:08.420Z,56.13
2017-10-10T21:22:10.334Z,57.03
2017-10-10T21:27:12.284Z,70.33
2017-10-10T21:32:14.187Z,62.47
2017-10-10T21:37:16.860Z,66.00
2017-10-10T21:42:18.803Z,76.77
2017-10-10T21:47:21.430Z,74.73
2017-10-10T21:52:24.131Z,78.20
2017-10-10T21:57:26.087Z,77.30
2017-10-10T22:02:28.005Z,83.23
2017-10-10T22:07:29.916Z,76.60
2017-10-10T22:12:31.832Z,73.33
2017-10-10T22:17:33.751Z,65.53
2017-10-10T22:22:35.707Z,78.73
2017-10-10T22:27:37.611Z,73.03
2017-10-10T22:32:39.560Z,70.50
2017-10-10T22:37:41.578Z,79.90
2017-10-10T22:42:43.503Z,78.93
2017-10-10T22:47:45.442Z,70.43
2017-10-10T22:52:47.353Z,86.57
2017-10-10T22:57:49.259Z,70.37
2017-10-10T23:02:51.211Z,62.23
2017-10-10T23:07:53.149Z,60.47
2017-10-10T23:12:55.069Z,65.60
2017-10-10T23:17:57.014Z,63.17
2017-10-10T23:22:59.647Z,64.53
2017-10-10T23:28:01.574Z,52.00
2017-10-10T23:33:03.588Z,52.40
2017-10-10T23:38:05.487Z,51.70
2017-10-10T23:43:07.414Z,55.80
2017-10-10T23:48:10.080Z,55.80
2017-10-10T23:53:12.013Z,62.33
2017-10-10T23:58:13.936Z,54.00
